Time;durP1;ratioP1;P1;durP2;ratioP2;P2;SDS_P1;SDS_P2;PMS_P1;PMS_P2;Temp;Humidity;BMP_temperature;BMP_pressure;BME280_temperature;BME280_humidity;BME280_pressure;Samples;Min_cycle;Max_cycle;Signal;HPM_P1;HPM_P2
2021/01/22 00:02:19;;;;;;;1.77;0.57;;;;;;;10.61;69.81;97190.63;5016009;28;20057;-78
2021/01/22 00:04:47;;;;;;;0.73;0.47;;;;;;;10.61;69.22;97187.84;5017609;28;20458;-78
2021/01/22 00:07:14;;;;;;;0.90;0.35;;;;;;;10.64;68.30;97183.47;5017029;28;20064;-78
2021/01/22 00:09:41;;;;;;;0.95;0.45;;;;;;;10.63;68.24;97162.41;5016254;28;20050;-78
2021/01/22 00:12:08;;;;;;;1.52;0.73;;;;;;;10.66;68.96;97170.72;5016269;28;20054;-78
2021/01/22 00:14:35;;;;;;;1.27;0.68;;;;;;;10.69;67.82;97183.88;5015910;28;20068;-78
2021/01/22 00:17:02;;;;;;;1.88;0.70;;;;;;;10.70;67.54;97190.22;5008193;28;20046;-77
2021/01/22 00:19:29;;;;;;;2.85;0.93;;;;;;;10.77;68.69;97165.16;4996188;28;20058;-77
2021/01/22 00:21:57;;;;;;;2.92;0.73;;;;;;;10.82;67.94;97175.13;4996118;28;20057;-78
2021/01/22 00:24:24;;;;;;;1.88;0.77;;;;;;;10.81;67.03;97177.09;5002512;28;20057;-77
2021/01/22 00:26:51;;;;;;;1.90;0.60;;;;;;;10.90;67.24;97166.38;5011017;28;20502;-77
2021/01/22 00:29:17;;;;;;;2.03;0.85;;;;;;;10.94;66.90;97175.53;4995554;28;20062;-77
2021/01/22 00:31:44;;;;;;;1.27;0.50;;;;;;;10.97;66.10;97157.22;4996110;28;20477;-77
2021/01/22 00:34:11;;;;;;;1.85;1.00;;;;;;;11.01;65.87;97148.88;4995649;28;20507;-77
2021/01/22 00:36:38;;;;;;;1.00;0.50;;;;;;;10.99;66.14;97156.84;4995570;28;20054;-77
2021/01/22 00:39:06;;;;;;;1.02;0.50;;;;;;;11.08;65.43;97168.34;4995266;28;20061;-77
2021/01/22 00:41:33;;;;;;;1.10;0.50;;;;;;;11.09;65.47;97128.19;4999555;28;20068;-77
2021/01/22 00:44:00;;;;;;;2.47;0.90;;;;;;;11.10;65.60;97146.47;5014917;28;20064;-77
2021/01/22 00:46:27;;;;;;;2.50;0.75;;;;;;;11.17;63.85;97140.88;5014755;28;20057;-77
2021/01/22 00:48:54;;;;;;;1.23;0.50;;;;;;;11.17;64.25;97140.88;5015082;28;20050;-77
2021/01/22 00:51:21;;;;;;;2.35;0.75;;;;;;;11.23;63.03;97146.84;5015409;28;20046;-77
2021/01/22 00:53:50;;;;;;;2.03;0.60;;;;;;;11.25;62.73;97122.97;5013544;28;20049;-77
2021/01/22 00:56:17;;;;;;;2.30;0.80;;;;;;;11.26;63.16;97137.72;5015422;28;20439;-78
2021/01/22 00:58:44;;;;;;;1.48;0.80;;;;;;;11.26;62.10;97129.34;5015477;28;20054;-76
2021/01/22 01:01:11;;;;;;;2.85;1.10;;;;;;;11.24;62.37;97135.31;5014617;28;20054;-76
2021/01/22 01:03:38;;;;;;;3.42;1.00;;;;;;;11.28;63.14;97094.31;5014981;28;20050;-76
2021/01/22 01:06:05;;;;;;;2.25;0.88;;;;;;;11.22;63.70;97126.56;5014005;28;20053;-77
2021/01/22 01:08:32;;;;;;;3.05;0.80;;;;;;;11.16;62.48;97086.38;5014300;28;20492;-77
2021/01/22 01:10:58;;;;;;;2.28;0.85;;;;;;;11.04;62.59;97103.50;5014111;28;20070;-76
2021/01/22 01:13:26;;;;;;;2.13;0.93;;;;;;;11.07;63.52;97091.59;5014233;28;20062;-76
2021/01/22 01:15:53;;;;;;;2.78;0.98;;;;;;;11.08;63.86;97098.72;5014413;28;20058;-77
2021/01/22 01:18:20;;;;;;;3.05;1.00;;;;;;;11.03;63.69;97129.78;5014417;28;20053;-77
2021/01/22 01:20:47;;;;;;;2.25;1.13;;;;;;;11.02;63.24;97080.84;5014311;28;20060;-77
2021/01/22 01:23:15;;;;;;;3.00;0.93;;;;;;;10.99;64.49;97081.66;5011316;28;20062;-77
2021/01/22 01:25:42;;;;;;;2.83;1.10;;;;;;;10.97;64.27;97082.81;4992106;28;20058;-77
2021/01/22 01:28:08;;;;;;;3.88;1.30;;;;;;;11.00;63.53;97095.16;4994493;28;20412;-77
2021/01/22 01:30:36;;;;;;;5.00;1.25;;;;;;;10.94;65.51;97086.44;4994027;28;20058;-77
2021/01/22 01:33:03;;;;;;;4.78;1.20;;;;;;;10.86;67.47;97104.34;4994695;28;20058;-78
2021/01/22 01:35:30;;;;;;;2.72;0.80;;;;;;;10.59;71.05;97126.22;4994834;28;20054;-77
2021/01/22 01:37:57;;;;;;;3.95;1.40;;;;;;;10.26;73.34;97093.94;4994594;28;20065;-77
2021/01/22 01:40:24;;;;;;;3.17;0.98;;;;;;;10.12;73.37;97098.31;4994442;28;20419;-77
2021/01/22 01:42:51;;;;;;;6.15;1.70;;;;;;;9.95;75.71;97107.38;4994243;28;20046;-77
2021/01/22 01:45:18;;;;;;;4.25;1.30;;;;;;;9.83;76.09;97118.88;4993811;28;20062;-77
2021/01/22 01:47:48;;;;;;;4.30;1.08;;;;;;;9.67;78.67;97105.31;4994348;28;20070;-77
2021/01/22 01:50:14;;;;;;;;;;;;;;;9.59;77.88;97110.03;4994744;28;20425;-77
2021/01/22 01:52:41;;;;;;;3.58;1.10;;;;;;;9.49;78.37;97100.50;4994050;28;19922;-77
2021/01/22 01:55:09;;;;;;;6.95;1.50;;;;;;;9.43;79.52;97124.28;4995804;28;20057;-78
2021/01/22 01:57:37;;;;;;;5.07;1.30;;;;;;;9.28;80.52;97106.75;4995222;28;20050;-77
2021/01/22 02:00:11;;;;;;;3.53;1.00;;;;;;;9.27;80.95;97101.56;4994285;28;20065;-77
2021/01/22 02:02:39;;;;;;;4.25;1.30;;;;;;;9.19;82.46;97095.16;4995979;28;20055;-79
2021/01/22 02:05:07;;;;;;;4.55;1.20;;;;;;;9.22;81.55;97104.69;4995100;28;20061;-79
2021/01/22 02:07:34;;;;;;;3.35;1.08;;;;;;;9.25;80.88;97090.84;4994847;28;20062;-78
2021/01/22 02:10:01;;;;;;;2.85;1.17;;;;;;;9.26;81.26;97092.44;4978287;28;20055;-78
2021/01/22 02:12:29;;;;;;;5.45;1.10;;;;;;;9.27;79.99;97099.56;4975836;28;20053;-79
2021/01/22 02:14:56;;;;;;;5.50;0.95;;;;;;;9.34;79.25;97104.38;4975456;28;20054;-78
2021/01/22 02:17:23;;;;;;;3.20;0.93;;;;;;;9.35;79.30;97083.75;4975513;28;20078;-78
2021/01/22 02:20:10;;;;;;;3.33;0.80;;;;;;;9.35;77.99;97087.31;4974639;28;20051;-79
2021/01/22 02:22:38;;;;;;;3.78;1.13;;;;;;;9.39;78.14;97090.13;4975783;28;20057;-78
2021/01/22 02:25:08;;;;;;;3.17;0.90;;;;;;;9.42;78.17;97128.22;4992026;28;20130;-79
2021/01/22 02:27:36;;;;;;;;;;;;;;;9.41;78.22;97098.03;4995991;28;20054;-79
2021/01/22 02:30:05;;;;;;;1.88;0.75;;;;;;;9.42;78.65;97102.44;4995502;28;20401;-79
2021/01/22 02:32:33;;;;;;;6.10;1.02;;;;;;;9.23;80.92;97145.19;4995504;28;20142;-79
2021/01/22 02:35:04;;;;;;;8.48;1.48;;;;;;;9.22;81.96;97135.25;4995604;28;20061;-79
2021/01/22 02:37:32;;;;;;;5.47;1.00;;;;;;;9.13;83.10;97160.56;4995178;28;20061;-79
2021/01/22 02:40:06;;;;;;;6.80;1.23;;;;;;;9.12;84.90;97190.31;4980319;28;20054;-79
2021/01/22 02:42:33;;;;;;;4.18;1.33;;;;;;;9.11;85.21;97224.03;4978165;28;20074;-80
2021/01/22 02:45:01;;;;;;;4.63;1.20;;;;;;;9.07;85.99;97239.84;4978144;28;20086;-80
2021/01/22 02:47:28;;;;;;;9.65;1.27;;;;;;;8.86;83.75;97259.88;4978441;28;20054;-80
2021/01/22 02:49:55;;;;;;;2.90;0.93;;;;;;;8.80;83.74;97287.22;4977332;28;20047;-80
2021/01/22 02:52:22;;;;;;;3.30;0.80;;;;;;;8.64;82.20;97294.97;4977931;28;20051;-80
2021/01/22 02:54:51;;;;;;;2.20;0.68;;;;;;;8.45;81.88;97304.25;4993870;28;20057;-80
2021/01/22 02:57:32;;;;;;;1.35;0.70;;;;;;;8.36;82.33;97314.78;4996922;28;20054;-80
2021/01/22 03:00:04;;;;;;;3.45;1.15;;;;;;;8.30;82.31;97322.66;4996533;28;20495;-79
2021/01/22 03:02:38;;;;;;;2.53;1.20;;;;;;;8.28;81.94;97349.97;4995536;28;20476;-80
2021/01/22 03:05:06;;;;;;;2.83;1.70;;;;;;;8.16;82.21;97372.38;4995525;28;20054;-79
2021/01/22 03:07:38;;;;;;;11.48;3.10;;;;;;;8.10;80.78;97402.38;4994973;28;20054;-79
2021/01/22 03:10:06;;;;;;;3.58;2.60;;;;;;;8.08;80.40;97408.31;4982487;28;20489;-79
2021/01/22 03:12:34;;;;;;;3.50;2.60;;;;;;;7.99;79.43;97426.38;4976614;28;20062;-79
2021/01/22 03:15:04;;;;;;;3.75;2.58;;;;;;;7.80;78.36;97436.38;4995269;28;20058;-79
2021/01/22 03:17:31;;;;;;;2.67;1.77;;;;;;;7.65;78.21;97456.72;4997969;28;20375;-79
2021/01/22 03:19:57;;;;;;;2.60;1.80;;;;;;;7.50;78.50;97455.66;5015153;28;20506;-79
2021/01/22 03:22:24;;;;;;;4.95;1.50;;;;;;;7.40;78.05;97473.66;5015401;28;20046;-79
2021/01/22 03:24:53;;;;;;;2.60;2.00;;;;;;;7.25;78.24;97489.22;5002491;28;20066;-79
2021/01/22 03:27:20;;;;;;;3.20;2.40;;;;;;;7.18;78.09;97502.91;4995874;28;20456;-79
2021/01/22 03:29:47;;;;;;;3.80;2.90;;;;;;;7.04;77.68;97494.31;4995567;28;20054;-79
2021/01/22 03:32:15;;;;;;;4.13;3.55;;;;;;;6.96;78.46;97500.88;4998730;28;20416;-79
2021/01/22 03:34:42;;;;;;;4.85;3.30;;;;;;;6.93;78.37;97504.34;4998792;28;20046;-79
2021/01/22 03:37:09;;;;;;;4.40;3.05;;;;;;;6.90;78.34;97525.25;4999356;28;20408;-80
2021/01/22 03:39:38;;;;;;;5.15;3.35;;;;;;;6.86;77.90;97533.47;5012125;28;20049;-80
2021/01/22 03:42:05;;;;;;;3.33;2.63;;;;;;;6.86;78.67;97530.69;5018527;28;20057;-79
2021/01/22 03:44:32;;;;;;;5.18;3.95;;;;;;;6.84;78.07;97530.25;5019048;28;20407;-79
2021/01/22 03:46:59;;;;;;;7.47;5.50;;;;;;;6.84;77.23;97544.09;5018212;28;20062;-80
2021/01/22 03:49:27;;;;;;;7.80;6.07;;;;;;;6.86;77.73;97546.50;5018930;28;20108;-79
2021/01/22 03:51:54;;;;;;;8.75;6.40;;;;;;;6.82;76.90;97554.72;5018687;28;20050;-79
2021/01/22 03:54:21;;;;;;;9.57;7.43;;;;;;;6.82;76.96;97565.00;5017020;28;20053;-79
2021/01/22 03:56:48;;;;;;;10.48;8.10;;;;;;;6.77;76.89;97568.84;5018043;28;20080;-79
2021/01/22 03:59:15;;;;;;;12.50;9.38;;;;;;;6.81;77.85;97569.72;5018526;28;20053;-79
2021/01/22 04:01:41;;;;;;;9.43;7.97;;;;;;;6.80;77.41;97572.84;5018830;28;20049;-79
2021/01/22 04:04:09;;;;;;;6.43;5.40;;;;;;;6.74;76.11;97599.19;5018371;28;20065;-79
2021/01/22 04:06:37;;;;;;;8.32;5.50;;;;;;;6.77;76.62;97596.50;5018397;28;20053;-79
2021/01/22 04:09:04;;;;;;;7.40;5.85;;;;;;;6.72;75.93;97599.56;5018401;28;20053;-78
2021/01/22 04:11:31;;;;;;;7.22;5.60;;;;;;;6.72;76.49;97602.34;5018207;28;20053;-79
2021/01/22 04:13:58;;;;;;;5.70;4.80;;;;;;;6.69;75.66;97612.13;5017841;28;20061;-79
2021/01/22 04:16:25;;;;;;;6.88;4.80;;;;;;;6.66;74.21;97612.06;5016368;28;20482;-79
2021/01/22 04:18:52;;;;;;;8.02;5.10;;;;;;;6.68;75.28;97629.09;5018371;28;20097;-79
2021/01/22 04:21:18;;;;;;;8.15;5.68;;;;;;;6.69;75.48;97625.97;5018225;28;20049;-79
2021/01/22 04:23:46;;;;;;;8.02;5.10;;;;;;;6.68;74.80;97638.19;5016985;28;20053;-79
2021/01/22 04:26:13;;;;;;;7.97;4.85;;;;;;;6.67;75.10;97644.88;5019153;28;20058;-79
2021/01/22 04:28:40;;;;;;;5.72;4.22;;;;;;;6.73;75.20;97644.63;5018695;28;20447;-79
2021/01/22 04:31:07;;;;;;;6.65;3.88;;;;;;;6.76;75.03;97650.25;5017973;28;20058;-79
2021/01/22 04:33:34;;;;;;;6.70;4.15;;;;;;;6.74;74.61;97662.81;5002771;28;20055;-79
2021/01/22 04:36:01;;;;;;;5.72;4.03;;;;;;;6.76;74.11;97663.25;4998419;28;20050;-79
2021/01/22 04:38:28;;;;;;;5.45;4.30;;;;;;;6.76;74.09;97671.56;4998128;28;20061;-79
2021/01/22 04:40:58;;;;;;;6.28;4.30;;;;;;;6.72;74.32;97665.94;4998565;28;20050;-79
2021/01/22 04:43:25;;;;;;;5.65;3.97;;;;;;;6.73;74.78;97656.47;4999169;28;20050;-79
2021/01/22 04:45:54;;;;;;;5.63;4.13;;;;;;;6.74;74.09;97643.44;4999068;28;20058;-79
2021/01/22 04:48:22;;;;;;;5.68;4.18;;;;;;;6.67;74.00;97666.22;5011781;28;20056;-79
2021/01/22 04:50:51;;;;;;;7.65;4.78;;;;;;;6.68;73.85;97670.59;5018231;28;20058;-79
2021/01/22 04:53:25;;;;;;;7.22;4.63;;;;;;;6.59;74.04;97678.25;5018160;28;20053;-79
2021/01/22 04:55:55;;;;;;;8.07;5.38;;;;;;;6.64;73.83;97678.78;5018051;28;20080;-79
2021/01/22 04:58:26;;;;;;;8.68;5.65;;;;;;;6.67;74.61;97680.84;5018682;28;20061;-79
2021/01/22 05:00:53;;;;;;;7.75;5.13;;;;;;;6.60;73.10;97677.91;5018739;28;20060;-79
2021/01/22 05:03:23;;;;;;;7.97;6.00;;;;;;;6.58;73.04;97677.44;5006210;28;20416;-79
2021/01/22 05:05:51;;;;;;;9.70;7.65;;;;;;;6.52;72.85;97687.16;4998358;28;20539;-79
2021/01/22 05:08:18;;;;;;;10.60;8.00;;;;;;;6.52;73.45;97689.13;5005460;28;20057;-79
2021/01/22 05:10:45;;;;;;;11.18;7.45;;;;;;;6.47;72.95;97691.00;5017751;28;20484;-79
2021/01/22 05:13:12;;;;;;;11.73;7.95;;;;;;;6.41;72.60;97689.66;5017741;28;20050;-79
2021/01/22 05:15:39;;;;;;;12.88;8.77;;;;;;;6.39;73.09;97693.94;5018475;28;20431;-79
2021/01/22 05:18:08;;;;;;;10.80;8.10;;;;;;;6.39;72.88;97713.31;5018611;28;20368;-79
2021/01/22 05:20:36;;;;;;;10.88;7.35;;;;;;;6.35;73.73;97707.66;5017814;28;20049;-79
2021/01/22 05:23:05;;;;;;;8.35;5.50;;;;;;;6.24;72.24;97712.91;5017630;28;20076;-79
2021/01/22 05:25:33;;;;;;;10.38;6.70;;;;;;;6.28;72.52;97713.03;5016315;28;20380;-79
2021/01/22 05:28:01;;;;;;;9.82;6.85;;;;;;;6.32;73.38;97724.97;5018347;28;20388;-79
2021/01/22 05:30:30;;;;;;;9.50;6.40;;;;;;;6.32;72.74;97716.69;5011589;28;20065;-79
2021/01/22 05:33:16;;;;;;;10.05;6.15;;;;;;;6.30;72.90;97716.25;4998345;28;20062;-79
2021/01/22 05:35:51;;;;;;;6.80;4.88;;;;;;;6.23;72.26;97705.75;4997583;28;20392;-79
2021/01/22 05:38:17;;;;;;;8.95;4.60;;;;;;;6.23;72.04;97708.53;4997422;28;20073;-79
2021/01/22 05:40:51;;;;;;;7.18;5.00;;;;;;;6.19;72.50;97704.06;4997478;28;20069;-79
2021/01/22 05:43:18;;;;;;;7.78;5.57;;;;;;;6.18;73.24;97702.47;4997642;28;20065;-80
2021/01/22 05:45:46;;;;;;;6.45;4.70;;;;;;;6.15;71.95;97708.69;4998698;28;20400;-78
2021/01/22 05:48:22;;;;;;;7.05;5.28;;;;;;;6.14;73.33;97715.41;4996450;28;20062;-78
2021/01/22 05:50:50;;;;;;;7.00;5.13;;;;;;;6.15;73.57;97711.47;4996256;28;20061;-78
2021/01/22 05:53:19;;;;;;;7.15;4.72;;;;;;;6.14;73.01;97715.41;4995646;28;20050;-78
2021/01/22 05:55:46;;;;;;;7.10;4.97;;;;;;;6.12;73.15;97724.03;4996088;28;20515;-78
2021/01/22 05:58:28;;;;;;;7.80;4.20;;;;;;;6.12;72.91;97720.47;4996343;28;20061;-78
2021/01/22 06:01:04;;;;;;;5.05;3.70;;;;;;;6.14;73.54;97707.91;5008401;28;20045;-78
2021/01/22 06:03:32;;;;;;;6.25;3.97;;;;;;;6.14;72.22;97727.25;5015579;28;20050;-78
2021/01/22 06:05:59;;;;;;;8.18;4.43;;;;;;;6.16;72.46;97737.97;5015228;28;20064;-78
2021/01/22 06:08:26;;;;;;;6.97;4.47;;;;;;;6.18;72.95;97725.38;5007478;28;20054;-78
2021/01/22 06:10:54;;;;;;;6.97;4.10;;;;;;;6.16;73.01;97736.00;4995290;28;20053;-78
2021/01/22 06:13:25;;;;;;;6.13;4.30;;;;;;;6.14;73.41;97731.97;4995637;28;20514;-77
2021/01/22 06:15:56;;;;;;;6.57;4.05;;;;;;;6.16;73.04;97722.16;4997396;28;20058;-78
2021/01/22 06:18:29;;;;;;;6.70;4.45;;;;;;;6.14;72.21;97729.22;5005730;28;20411;-77
2021/01/22 06:21:09;;;;;;;6.70;4.90;;;;;;;6.09;73.00;97722.78;5000525;28;20052;-77
2021/01/22 06:23:39;;;;;;;5.95;4.95;;;;;;;6.11;73.15;97714.16;4998114;28;20054;-77
2021/01/22 06:26:07;;;;;;;5.45;4.03;;;;;;;6.06;72.06;97714.38;5005694;28;20038;-77
2021/01/22 06:28:35;;;;;;;6.85;5.15;;;;;;;6.06;72.00;97719.91;5011249;28;20511;-77
2021/01/22 06:31:05;;;;;;;8.32;5.80;;;;;;;6.05;72.96;97719.13;5011521;28;20061;-77
2021/01/22 06:33:33;;;;;;;;;;;;;;;6.02;71.42;97721.78;5012257;28;20153;-78
2021/01/22 06:36:05;;;;;;;7.35;5.43;;;;;;;5.96;72.28;97728.69;4994494;28;19921;-78
2021/01/22 06:38:32;;;;;;;7.75;6.47;;;;;;;5.92;72.08;97725.00;4992950;28;20058;-77
2021/01/22 06:40:59;;;;;;;8.10;5.88;;;;;;;5.91;72.60;97729.72;5004963;28;20065;-77
2021/01/22 06:43:28;;;;;;;8.23;6.47;;;;;;;5.89;73.11;97740.31;5013009;28;20049;-78
2021/01/22 06:46:00;;;;;;;9.18;6.82;;;;;;;5.94;72.48;97731.78;5009766;28;20050;-78
2021/01/22 06:48:28;;;;;;;9.32;7.88;;;;;;;5.95;72.87;97744.47;5014649;28;20387;-78
2021/01/22 06:51:15;;;;;;;8.65;7.20;;;;;;;5.94;72.38;97751.09;5014109;28;20062;-78
2021/01/22 06:54:03;;;;;;;9.13;6.47;;;;;;;5.85;72.51;97750.47;5014971;28;20057;-79
2021/01/22 06:56:31;;;;;;;9.57;7.22;;;;;;;5.81;72.75;97758.63;5013532;28;20053;-78
2021/01/22 06:59:37;;;;;;;8.57;7.20;;;;;;;5.82;72.71;97759.47;5014232;28;20356;-83
2021/01/22 07:02:31;;;;;;;10.00;8.00;;;;;;;5.88;73.57;97761.63;4998188;28;20057;-82
2021/01/22 07:04:58;;;;;;;10.85;7.65;;;;;;;5.92;72.81;97761.72;4998846;28;20054;-82
2021/01/22 07:07:47;;;;;;;10.18;7.70;;;;;;;5.95;72.68;97760.25;5002015;28;20058;-82
2021/01/22 07:10:14;;;;;;;9.70;7.40;;;;;;;6.02;72.55;97772.31;5013753;28;20061;-82
2021/01/22 07:12:45;;;;;;;10.27;8.13;;;;;;;6.03;71.73;97776.69;5016061;28;20046;-82
2021/01/22 07:15:33;;;;;;;10.82;8.40;;;;;;;6.09;72.99;97786.34;5001260;28;20058;-80
2021/01/22 07:18:01;;;;;;;12.60;8.27;;;;;;;6.15;72.78;97786.88;4995285;28;20062;-80
2021/01/22 07:20:29;;;;;;;11.00;8.05;;;;;;;6.18;72.40;97790.91;5001208;28;20058;-80
2021/01/22 07:22:59;;;;;;;12.20;9.43;;;;;;;6.23;72.43;97798.94;5001503;28;20066;-80
2021/01/22 07:25:31;;;;;;;12.70;8.63;;;;;;;6.28;72.94;97813.34;4985853;28;20062;-81
2021/01/22 07:28:03;;;;;;;13.38;9.70;;;;;;;6.31;72.38;97814.59;4982643;28;20062;-80
2021/01/22 07:30:38;;;;;;;14.30;9.52;;;;;;;6.39;72.47;97813.63;4981724;28;20477;-80
2021/01/22 07:33:36;;;;;;;10.63;8.55;;;;;;;6.40;71.50;97820.75;4988082;28;20046;-79
2021/01/22 07:36:07;;;;;;;11.48;8.02;;;;;;;6.39;71.74;97823.91;4981434;28;20058;-80
2021/01/22 07:38:36;;;;;;;12.48;8.40;;;;;;;6.42;71.45;97823.97;4981459;28;20057;-79
2021/01/22 07:41:06;;;;;;;10.93;8.13;;;;;;;6.42;71.27;97825.94;4985653;28;20054;-80
2021/01/22 07:43:34;;;;;;;14.75;9.60;;;;;;;6.42;71.52;97829.50;5000709;28;20053;-78
2021/01/22 07:46:06;;;;;;;11.82;8.50;;;;;;;6.36;71.77;97830.91;4998336;28;20054;-78
2021/01/22 07:48:35;;;;;;;12.63;8.35;;;;;;;6.44;72.44;97831.91;4997490;28;20061;-79
2021/01/22 07:51:32;;;;;;;14.60;9.38;;;;;;;6.48;72.51;97836.38;5003517;28;20443;-80
2021/01/22 07:54:01;;;;;;;11.82;8.15;;;;;;;6.51;71.84;97826.59;4998495;28;20054;-78
2021/01/22 07:56:37;;;;;;;13.95;8.57;;;;;;;6.53;72.30;97826.22;4980164;28;20058;-77
2021/01/22 07:59:06;;;;;;;11.85;7.95;;;;;;;6.48;72.00;97827.28;4982537;28;20062;-77
2021/01/22 08:01:33;;;;;;;14.33;8.13;;;;;;;6.52;72.01;97824.63;4990309;28;20051;-77
2021/01/22 08:04:01;;;;;;;11.30;7.90;;;;;;;6.55;71.81;97832.22;4993195;28;20507;-77
2021/01/22 08:06:30;;;;;;;10.45;7.78;;;;;;;6.51;72.15;97832.13;4994308;28;20428;-77
2021/01/22 08:09:11;;;;;;;13.63;8.35;;;;;;;6.52;72.09;97836.50;4987093;28;20062;-76
2021/01/22 08:11:39;;;;;;;13.38;8.00;;;;;;;6.57;71.58;97852.03;4985223;28;20114;-77
2021/01/22 08:14:06;;;;;;;13.35;7.25;;;;;;;6.58;71.46;97845.34;4984528;28;20062;-77
2021/01/22 08:16:34;;;;;;;11.65;7.10;;;;;;;6.60;73.00;97849.38;5010734;28;20050;-76
2021/01/22 08:19:01;;;;;;;11.30;7.88;;;;;;;6.64;71.85;97846.72;5012098;28;20467;-77
2021/01/22 08:21:34;;;;;;;9.98;7.13;;;;;;;6.66;71.29;97861.78;5014297;28;20419;-77
2021/01/22 08:24:01;;;;;;;13.07;7.43;;;;;;;6.71;71.27;97869.03;5005819;28;20053;-77
2021/01/22 08:26:32;;;;;;;13.25;8.38;;;;;;;6.73;71.30;97861.19;5012294;28;20049;-77
2021/01/22 08:28:59;;;;;;;14.07;8.55;;;;;;;6.75;71.01;97869.94;5010679;28;20065;-77
2021/01/22 08:31:25;;;;;;;11.13;7.97;;;;;;;6.77;71.22;97866.81;5007528;28;20121;-77
2021/01/22 08:33:53;;;;;;;10.20;7.55;;;;;;;6.81;71.16;97868.53;5012309;28;20065;-77
2021/01/22 08:36:21;;;;;;;12.93;8.93;;;;;;;6.86;71.41;97864.69;5010953;28;20061;-76
2021/01/22 08:38:48;;;;;;;14.63;8.68;;;;;;;6.96;70.97;97877.22;5012592;28;20054;-77
2021/01/22 08:41:25;;;;;;;12.45;8.05;;;;;;;7.05;70.60;97884.19;5012102;28;20053;-77
2021/01/22 08:43:54;;;;;;;12.15;8.25;;;;;;;7.09;69.60;97884.28;5011654;28;20046;-76
2021/01/22 08:46:22;;;;;;;11.90;7.15;;;;;;;7.09;69.30;97885.06;5011090;28;20061;-76
2021/01/22 08:48:49;;;;;;;12.52;7.53;;;;;;;7.01;70.00;97876.94;5011957;28;20046;-77
2021/01/22 08:51:27;;;;;;;10.18;6.40;;;;;;;7.07;68.84;97883.81;5011314;28;20069;-77
2021/01/22 08:53:55;;;;;;;10.80;7.00;;;;;;;7.10;69.51;97886.69;5010338;28;20507;-77
2021/01/22 08:56:22;;;;;;;9.80;6.10;;;;;;;7.20;69.60;97890.09;5010964;28;20054;-76
2021/01/22 08:59:05;;;;;;;7.78;6.03;;;;;;;7.13;67.80;97885.19;5011997;28;20130;-77
2021/01/22 09:01:53;;;;;;;10.13;6.43;;;;;;;7.16;68.72;97873.41;4997986;28;20069;-78
2021/01/22 09:04:27;;;;;;;10.45;6.78;;;;;;;7.21;69.69;97873.13;5006699;28;20061;-77
2021/01/22 09:06:56;;;;;;;10.80;6.93;;;;;;;7.27;68.86;97880.03;5011678;28;20061;-77
2021/01/22 09:09:43;;;;;;;11.10;6.60;;;;;;;7.28;67.54;97881.59;5006299;28;20050;-77
2021/01/22 09:12:12;;;;;;;9.82;6.63;;;;;;;7.35;67.59;97886.56;5009497;28;20098;-77
2021/01/22 09:14:48;;;;;;;9.48;6.55;;;;;;;7.31;67.75;97892.00;5000095;28;20153;-77
2021/01/22 09:17:29;;;;;;;10.90;6.60;;;;;;;7.37;67.14;97894.47;4992901;28;20058;-77
2021/01/22 09:20:03;;;;;;;11.48;7.65;;;;;;;7.55;67.49;97903.25;4993259;28;20062;-77
2021/01/22 09:22:31;;;;;;;10.98;7.32;;;;;;;7.56;67.66;97913.97;4990108;28;20057;-77
2021/01/22 09:24:58;;;;;;;7.40;5.70;;;;;;;7.63;66.76;97914.16;4988290;28;20051;-77
2021/01/22 09:27:26;;;;;;;8.70;5.95;;;;;;;7.61;66.33;97921.22;4993398;28;20507;-77
2021/01/22 09:29:53;;;;;;;8.75;5.78;;;;;;;7.47;67.23;97925.22;4992782;28;20052;-79
2021/01/22 09:32:20;;;;;;;10.85;5.60;;;;;;;7.62;67.22;97940.25;4993163;28;20461;-78
2021/01/22 09:34:47;;;;;;;7.18;6.00;;;;;;;7.65;66.91;97939.53;4997279;28;20057;-77
2021/01/22 09:37:14;;;;;;;14.00;6.25;;;;;;;7.78;67.38;97931.94;4993335;28;20061;-77
2021/01/22 09:39:41;;;;;;;6.97;5.95;;;;;;;7.85;66.32;97942.38;4989031;28;20054;-77
2021/01/22 09:42:08;;;;;;;10.00;5.70;;;;;;;7.87;66.23;97938.09;4992125;28;20051;-77
2021/01/22 09:44:36;;;;;;;8.48;5.80;;;;;;;7.79;66.33;97941.03;4991565;28;20085;-76
2021/01/22 09:47:04;;;;;;;9.20;4.93;;;;;;;7.76;66.33;97944.53;4992710;28;20046;-78
2021/01/22 09:49:31;;;;;;;7.93;5.03;;;;;;;7.77;66.67;97952.50;4993845;28;20065;-78
2021/01/22 09:51:58;;;;;;;9.82;5.20;;;;;;;7.75;67.02;97949.28;4993050;28;20058;-78
2021/01/22 09:54:25;;;;;;;8.13;5.00;;;;;;;7.91;66.00;97952.03;4985655;28;20416;-78
2021/01/22 09:56:52;;;;;;;6.88;5.03;;;;;;;7.78;66.41;97948.56;4994825;28;20510;-78
2021/01/22 09:59:19;;;;;;;7.50;4.68;;;;;;;7.76;67.13;97944.53;4998180;28;20061;-77
2021/01/22 10:01:45;;;;;;;7.38;5.53;;;;;;;7.89;65.75;97932.19;4997470;28;20057;-78
2021/01/22 10:04:13;;;;;;;6.88;4.90;;;;;;;8.03;65.96;97949.16;4996000;28;20046;-77
2021/01/22 10:06:41;;;;;;;6.57;4.25;;;;;;;8.22;65.12;97951.19;4992667;28;20058;-77
2021/01/22 10:09:10;;;;;;;9.35;4.80;;;;;;;8.36;63.91;97958.22;4991352;28;20085;-77
2021/01/22 10:11:38;;;;;;;5.97;3.55;;;;;;;8.31;63.28;97951.78;4991902;28;20391;-77
2021/01/22 10:14:05;;;;;;;5.00;3.30;;;;;;;8.28;63.59;97965.59;5003472;28;20066;-78
2021/01/22 10:16:32;;;;;;;6.50;5.00;;;;;;;8.34;64.54;97969.69;5006343;28;20054;-78
2021/01/22 10:18:59;;;;;;;8.90;4.22;;;;;;;8.42;63.98;97968.72;4999790;28;20049;-78
2021/01/22 10:21:27;;;;;;;9.13;4.65;;;;;;;8.60;63.47;97977.44;5011050;28;20053;-78
2021/01/22 10:23:54;;;;;;;6.75;4.28;;;;;;;8.70;61.74;97984.41;5012303;28;20046;-78
2021/01/22 10:26:22;;;;;;;7.20;4.50;;;;;;;8.83;60.75;97998.94;5012980;28;20384;-78
2021/01/22 10:28:51;;;;;;;7.85;4.28;;;;;;;9.19;61.30;97992.16;5011853;28;20149;-77
2021/01/22 10:31:18;;;;;;;7.22;5.00;;;;;;;9.24;61.52;97991.03;5008900;28;20060;-77
2021/01/22 10:33:46;;;;;;;8.05;4.85;;;;;;;9.29;60.78;97990.75;5006290;28;20475;-78
2021/01/22 10:36:14;;;;;;;6.90;4.10;;;;;;;9.21;60.19;98000.91;5007845;28;20061;-78
2021/01/22 10:38:42;;;;;;;10.93;6.50;;;;;;;9.07;61.07;97990.34;5009095;28;20050;-78
2021/01/22 10:41:10;;;;;;;6.88;5.00;;;;;;;9.22;60.55;97997.00;4997623;28;20073;-78
2021/01/22 10:43:37;;;;;;;7.97;4.53;;;;;;;9.38;60.58;98004.41;5011124;28;20054;-78
2021/01/22 10:46:04;;;;;;;6.95;4.22;;;;;;;9.40;59.95;98008.44;5013282;28;20049;-78
2021/01/22 10:48:31;;;;;;;6.90;4.60;;;;;;;9.59;59.91;98004.03;5016608;28;20053;-78
2021/01/22 10:50:58;;;;;;;10.30;4.88;;;;;;;9.70;59.88;98000.28;5011853;28;20073;-78
2021/01/22 10:53:25;;;;;;;5.68;4.10;;;;;;;9.55;57.99;97999.22;5010014;28;20053;-78
2021/01/22 10:55:53;;;;;;;5.80;3.95;;;;;;;9.58;59.01;97999.66;5002101;28;20058;-78
2021/01/22 10:58:19;;;;;;;6.82;4.10;;;;;;;9.46;59.41;97995.06;5001638;28;20054;-78
2021/01/22 11:00:47;;;;;;;8.13;4.80;;;;;;;9.61;59.86;97990.56;5012995;28;20061;-79
2021/01/22 11:03:14;;;;;;;5.38;3.97;;;;;;;9.77;58.10;97990.47;5015823;28;20080;-78
2021/01/22 11:05:40;;;;;;;5.53;3.60;;;;;;;10.15;57.31;97998.66;5012876;28;20050;-78
2021/01/22 11:08:07;;;;;;;9.25;4.82;;;;;;;10.44;56.54;97995.56;5010157;28;20057;-78
2021/01/22 11:10:34;;;;;;;5.40;3.50;;;;;;;10.40;55.33;98001.06;5010354;28;20061;-78
2021/01/22 11:13:02;;;;;;;6.85;4.10;;;;;;;10.45;55.76;98011.06;5012142;28;20459;-78
2021/01/22 11:15:31;;;;;;;6.18;4.07;;;;;;;10.19;56.92;98009.06;5012583;28;20066;-78
2021/01/22 11:17:58;;;;;;;9.10;5.05;;;;;;;10.40;57.65;98014.97;5008300;28;20415;-78
2021/01/22 11:20:25;;;;;;;6.18;3.65;;;;;;;10.24;56.51;98017.06;5012515;28;20065;-78
2021/01/22 11:22:52;;;;;;;5.07;3.50;;;;;;;10.14;56.44;98030.44;5009555;28;20057;-78
2021/01/22 11:25:21;;;;;;;6.93;3.08;;;;;;;9.88;57.07;98024.81;5012225;28;20050;-78
2021/01/22 11:27:49;;;;;;;7.38;3.95;;;;;;;9.60;56.66;98037.00;5011058;28;20419;-78
2021/01/22 11:30:17;;;;;;;8.60;3.90;;;;;;;9.45;57.92;98026.78;5009652;28;20471;-77
2021/01/22 11:32:45;;;;;;;7.77;4.83;;;;;;;9.56;58.97;98033.38;5010311;28;20053;-77
2021/01/22 11:35:12;;;;;;;7.45;5.20;;;;;;;9.58;59.58;98042.13;5007212;28;20057;-78
2021/01/22 11:37:40;;;;;;;5.75;4.70;;;;;;;9.67;58.93;98034.34;5002339;28;20068;-78
2021/01/22 11:40:09;;;;;;;5.60;4.00;;;;;;;9.77;59.13;98032.16;5011042;28;20057;-79
2021/01/22 11:42:36;;;;;;;4.87;3.40;;;;;;;9.71;58.45;98028.88;5013135;28;20419;-78
2021/01/22 11:45:05;;;;;;;6.43;4.03;;;;;;;9.64;58.25;98042.63;5012191;28;20045;-77
2021/01/22 11:47:33;;;;;;;6.22;3.60;;;;;;;9.68;58.65;98041.53;4987209;28;20057;-78
2021/01/22 11:50:00;;;;;;;9.25;4.45;;;;;;;9.72;58.50;98047.16;5011677;28;20061;-78